Portada
METAR-TAF:

METAR-TAF

Aeroports :

Uliànovsk, Rússia

latitud: 54-21N, longitud: 048-23E, altitud: 77 m

Observació

L'informe es va fer fa 19 minuts, a les 21:00 UTC
Vent 6 kt del Oest
Temperatura 19°C
Humitat 100%
Pressió 1007 hPa
Visibilitat: 8000 m

METAR: UWLW 182100Z 26003MPS 8000 NSC 19/19 Q1007 R02/CLRD60 NOSIG RMK QFE749

Hora: 00:19 (21:19 UTC)

Pronòstic

L'informe es va fer fa 1 hora i 34 minuts, a les 19:45 UTC
Pronòstic vàlid del 18 a les 21 UTC al 19 a les 21 UTC
Vent 6 kt del Oest
Visibilitat: 8000 m
Cel ennuvolat a una alçada de 3000 ft
Temporalment
l' 18 a les 21 UTC al 19 a les 06 UTC
Visibilitat: 3100 m
boirina
Temporalment
l' 19 a les 06 UTC al 19 a les 18 UTC
Vent 10 kt del Sud/Sud-Oest amb ràfegues de 23 kt

TAF: UWLW 181945Z 1821/1921 26003MPS 8000 BKN030 TEMPO 1821/1906 3100 BR TEMPO 1906/1918 21005G12MPS

Observacions i pronòstics meteorològics de més de 4000 aeroports (METAR i TAF).

Les estacions disponibles són els punts grocs i vermells al mapa.

Posi el ratolí al punt desitjat per veure el nom de l'estació.

Feu clic per veure les observacions i els pronòstics meteorològics.

Per canviar el mapa: feu clic els botons verds amb una creu de color negre per apropar; al botó verd amb un guió per allunyar la imatge; o en les fletxes verdes per a mapes adjacents.


METAR-TAF: